createdAt,value
2018-05-16T00:01:48.241Z,72.62
2018-05-16T00:04:14.837Z,72.29
2018-05-16T00:06:41.531Z,71.99
2018-05-16T00:09:08.080Z,72.40
2018-05-16T00:11:34.629Z,72.53
2018-05-16T00:14:01.378Z,73.12
2018-05-16T00:16:28.204Z,73.17
2018-05-16T00:18:54.791Z,73.59
2018-05-16T00:21:21.421Z,73.45
2018-05-16T00:23:48.025Z,73.40
2018-05-16T00:26:14.645Z,73.23
2018-05-16T00:28:41.280Z,73.36
2018-05-16T00:31:07.925Z,73.30
2018-05-16T00:33:34.684Z,72.96
2018-05-16T00:36:01.140Z,73.36
2018-05-16T00:38:27.909Z,73.91
2018-05-16T00:40:54.602Z,74.00
2018-05-16T00:43:21.238Z,73.66
2018-05-16T00:45:47.952Z,73.61
2018-05-16T00:48:14.480Z,73.01
2018-05-16T00:50:53.197Z,73.36
2018-05-16T00:53:19.849Z,73.25
2018-05-16T00:55:46.578Z,73.57
2018-05-16T00:58:13.365Z,73.37
2018-05-16T01:00:39.982Z,73.55
2018-05-16T01:03:06.618Z,73.59
2018-05-16T01:05:33.284Z,74.05
2018-05-16T01:07:59.870Z,73.87
2018-05-16T01:10:26.400Z,73.81
2018-05-16T01:12:53.028Z,73.94
2018-05-16T01:15:20.041Z,74.13
2018-05-16T01:17:46.626Z,74.50
2018-05-16T01:20:13.224Z,73.21
2018-05-16T01:22:39.858Z,73.10
2018-05-16T01:25:06.425Z,73.14
2018-05-16T01:27:33.132Z,73.17
2018-05-16T01:29:59.733Z,72.97
2018-05-16T01:32:26.496Z,72.51
2018-05-16T01:34:53.171Z,71.45
2018-05-16T01:37:19.773Z,71.75
2018-05-16T01:39:46.313Z,71.33
2018-05-16T01:42:13.149Z,71.39
2018-05-16T01:44:39.852Z,71.66
2018-05-16T01:47:06.464Z,72.16
2018-05-16T01:49:33.055Z,72.85
2018-05-16T01:51:59.598Z,73.39
2018-05-16T01:54:26.486Z,73.42
2018-05-16T01:56:53.129Z,73.93
2018-05-16T01:59:19.829Z,74.44
2018-05-16T02:01:46.414Z,74.20
2018-05-16T02:04:13.058Z,73.93
2018-05-16T02:06:39.641Z,73.94
2018-05-16T02:09:06.130Z,74.76
2018-05-16T02:11:32.738Z,75.17
2018-05-16T02:13:59.327Z,75.32
2018-05-16T02:16:25.980Z,75.22
2018-05-16T02:18:52.661Z,75.73
2018-05-16T02:21:19.319Z,75.69
2018-05-16T02:23:45.998Z,76.19
2018-05-16T02:26:12.749Z,76.21
2018-05-16T02:28:39.353Z,75.80
2018-05-16T02:31:06.005Z,75.47
2018-05-16T02:33:32.608Z,74.29
2018-05-16T02:35:59.570Z,74.15
2018-05-16T02:38:26.156Z,73.94
2018-05-16T02:40:52.759Z,73.69
2018-05-16T02:43:19.419Z,73.87
2018-05-16T02:45:46.102Z,73.75
2018-05-16T02:48:12.958Z,73.66
2018-05-16T02:50:39.566Z,73.97
2018-05-16T02:53:06.136Z,74.07
2018-05-16T02:55:32.824Z,73.97
2018-05-16T02:57:59.417Z,73.89
2018-05-16T03:00:26.077Z,73.68
2018-05-16T03:02:52.744Z,73.48
2018-05-16T03:05:19.418Z,73.31
2018-05-16T03:07:46.016Z,72.81
2018-05-16T03:10:12.793Z,72.80
2018-05-16T03:12:39.560Z,72.57
2018-05-16T03:15:06.288Z,72.42
2018-05-16T03:17:33.057Z,72.12
2018-05-16T03:20:00.050Z,71.76
2018-05-16T03:22:26.604Z,71.62
2018-05-16T03:24:53.248Z,71.43
2018-05-16T03:27:20.023Z,71.44
2018-05-16T03:29:46.840Z,71.70
2018-05-16T03:32:13.485Z,71.36
2018-05-16T03:34:40.210Z,70.95
2018-05-16T03:37:06.817Z,70.94
2018-05-16T03:39:33.478Z,71.00
2018-05-16T03:42:00.242Z,71.25
2018-05-16T03:44:27.124Z,71.11
2018-05-16T03:46:53.744Z,71.38
2018-05-16T03:49:20.321Z,71.57
2018-05-16T03:51:46.922Z,71.73
2018-05-16T03:54:13.716Z,72.16
2018-05-16T03:56:40.365Z,72.24
2018-05-16T03:59:19.068Z,71.85
2018-05-16T04:01:57.835Z,71.99
2018-05-16T04:04:24.560Z,71.17
2018-05-16T04:06:51.172Z,70.83
2018-05-16T04:09:18.104Z,70.77
2018-05-16T04:11:44.676Z,70.31
2018-05-16T04:14:11.292Z,70.30
2018-05-16T04:16:37.837Z,69.54
2018-05-16T04:19:04.401Z,69.50
2018-05-16T04:21:30.912Z,69.36
2018-05-16T04:23:57.517Z,69.14
2018-05-16T04:29:16.411Z,68.40
2018-05-16T04:31:42.975Z,69.14
2018-05-16T04:34:09.572Z,68.11
2018-05-16T04:36:36.097Z,67.61
2018-05-16T04:39:02.845Z,67.71
2018-05-16T04:41:29.520Z,66.99
2018-05-16T04:43:56.797Z,67.49
2018-05-16T04:46:23.443Z,67.41
2018-05-16T04:48:51.026Z,67.67
2018-05-16T04:51:17.556Z,67.68
2018-05-16T04:53:44.353Z,67.68
2018-05-16T04:56:10.968Z,67.24
2018-05-16T04:58:37.751Z,67.39
2018-05-16T05:01:04.505Z,67.14
2018-05-16T05:03:31.071Z,66.79
2018-05-16T05:05:57.735Z,67.43
2018-05-16T05:08:24.175Z,67.10
2018-05-16T05:10:51.357Z,67.11
2018-05-16T05:13:18.025Z,66.74
2018-05-16T05:15:44.839Z,65.66
2018-05-16T05:18:11.555Z,65.53
2018-05-16T05:20:38.020Z,65.41
2018-05-16T05:23:04.666Z,65.44
2018-05-16T05:25:31.329Z,64.78
2018-05-16T05:27:58.394Z,64.03
2018-05-16T05:30:25.409Z,62.23
2018-05-16T05:32:51.996Z,62.14
2018-05-16T05:35:18.902Z,61.82
2018-05-16T05:37:45.939Z,61.19
2018-05-16T05:40:12.500Z,61.37
2018-05-16T05:42:39.301Z,60.48
2018-05-16T05:45:05.992Z,60.19
2018-05-16T05:47:32.537Z,60.43
2018-05-16T05:49:59.358Z,60.67
2018-05-16T05:52:26.366Z,60.40
2018-05-16T05:54:52.970Z,60.29
2018-05-16T05:57:19.638Z,60.08
2018-05-16T05:59:46.371Z,59.78
2018-05-16T06:02:13.097Z,59.06
2018-05-16T06:04:39.736Z,57.82
2018-05-16T06:07:06.620Z,57.83
2018-05-16T06:09:33.157Z,57.92
2018-05-16T06:11:59.794Z,57.77
2018-05-16T06:14:26.466Z,58.19
2018-05-16T06:16:53.053Z,57.63
2018-05-16T06:19:19.700Z,57.59
2018-05-16T06:21:46.662Z,57.90
2018-05-16T06:24:13.499Z,58.07
2018-05-16T06:26:40.030Z,58.02
2018-05-16T06:29:06.625Z,58.40
2018-05-16T06:31:33.255Z,57.60
2018-05-16T06:33:59.766Z,57.17
2018-05-16T06:36:26.373Z,57.37
2018-05-16T06:38:53.098Z,57.25
2018-05-16T06:41:19.564Z,57.41
2018-05-16T06:43:46.040Z,57.17
2018-05-16T06:46:12.597Z,57.21
2018-05-16T06:48:39.049Z,57.20
2018-05-16T06:51:05.542Z,57.35
2018-05-16T06:53:32.000Z,57.30
2018-05-16T06:55:58.668Z,57.41
2018-05-16T06:58:25.214Z,57.43
2018-05-16T07:00:51.867Z,57.49
2018-05-16T07:03:18.436Z,57.52
2018-05-16T07:05:45.031Z,57.17
2018-05-16T07:08:11.535Z,57.19
2018-05-16T07:10:37.978Z,57.12
2018-05-16T07:13:04.435Z,57.52
2018-05-16T07:15:30.892Z,56.63
2018-05-16T07:17:57.500Z,57.06
2018-05-16T07:20:24.010Z,56.98
2018-05-16T07:22:50.515Z,56.85
2018-05-16T07:25:17.172Z,56.98
2018-05-16T07:27:43.694Z,57.42
2018-05-16T07:30:10.351Z,56.52
2018-05-16T07:32:37.051Z,56.78
2018-05-16T07:35:03.744Z,56.27
2018-05-16T07:37:30.431Z,55.80
2018-05-16T07:39:57.005Z,56.15
2018-05-16T07:42:23.553Z,56.59
2018-05-16T07:44:50.101Z,57.11
2018-05-16T07:47:16.627Z,56.92
2018-05-16T07:49:43.283Z,55.65
2018-05-16T07:52:09.861Z,56.14
2018-05-16T07:54:36.364Z,56.27
2018-05-16T07:57:03.098Z,56.06
2018-05-16T07:59:29.607Z,56.21
2018-05-16T08:01:56.071Z,56.11
2018-05-16T08:04:22.770Z,55.85
2018-05-16T08:06:49.352Z,56.29
2018-05-16T08:09:15.965Z,55.79
2018-05-16T08:11:42.525Z,55.25
2018-05-16T08:14:09.209Z,55.40
2018-05-16T08:16:35.834Z,55.17
2018-05-16T08:19:02.348Z,55.56
2018-05-16T08:21:28.999Z,55.14
2018-05-16T08:23:55.604Z,55.62
2018-05-16T08:26:22.394Z,56.19
2018-05-16T08:28:48.932Z,56.09
2018-05-16T08:31:22.697Z,55.52
2018-05-16T08:33:49.159Z,55.15
2018-05-16T08:36:15.700Z,55.20
2018-05-16T08:38:42.135Z,54.65
2018-05-16T08:41:08.577Z,55.07
2018-05-16T08:43:35.098Z,54.67
2018-05-16T08:46:01.668Z,54.81
2018-05-16T08:48:28.216Z,54.35
2018-05-16T08:50:54.784Z,54.41
2018-05-16T08:53:21.436Z,53.79
2018-05-16T08:55:47.987Z,53.27
2018-05-16T08:58:14.541Z,53.62
2018-05-16T09:00:41.269Z,52.81
2018-05-16T09:03:07.913Z,51.22
2018-05-16T09:05:34.368Z,50.90
2018-05-16T09:08:00.949Z,49.99
2018-05-16T09:10:27.546Z,50.48
2018-05-16T09:12:54.064Z,49.29
2018-05-16T09:15:20.694Z,49.10
2018-05-16T09:17:47.174Z,48.56
2018-05-16T09:20:13.681Z,48.75
2018-05-16T09:22:40.300Z,48.57
2018-05-16T09:25:06.943Z,47.80
2018-05-16T09:27:33.705Z,48.23
2018-05-16T09:30:00.503Z,42.53
2018-05-16T09:32:27.144Z,40.38
2018-05-16T09:34:53.840Z,38.53
2018-05-16T09:37:20.347Z,37.76
2018-05-16T09:39:46.940Z,39.00
2018-05-16T09:42:13.654Z,36.84
2018-05-16T09:44:40.339Z,38.15
2018-05-16T09:47:06.979Z,39.12
2018-05-16T09:49:33.730Z,36.56
2018-05-16T09:52:00.346Z,37.89
2018-05-16T09:54:26.963Z,37.49
2018-05-16T09:56:53.707Z,36.32
2018-05-16T09:59:27.176Z,36.63
2018-05-16T10:01:53.863Z,37.53
2018-05-16T10:04:20.488Z,37.78
2018-05-16T10:06:46.985Z,36.28
2018-05-16T10:09:13.533Z,36.90
2018-05-16T10:11:40.045Z,36.66
2018-05-16T10:14:06.672Z,38.06
2018-05-16T10:16:33.185Z,38.01
2018-05-16T10:18:59.653Z,36.84
2018-05-16T10:21:26.325Z,35.95
2018-05-16T10:23:53.120Z,35.81
2018-05-16T10:26:19.704Z,35.11
2018-05-16T10:28:46.244Z,34.37
2018-05-16T10:31:12.670Z,35.08
2018-05-16T10:33:39.296Z,35.29
2018-05-16T10:36:05.893Z,35.61
2018-05-16T10:38:32.357Z,35.37
2018-05-16T10:40:58.917Z,34.61
2018-05-16T10:43:25.414Z,33.36
2018-05-16T10:45:52.080Z,33.59
2018-05-16T10:48:18.521Z,33.95
2018-05-16T10:50:45.250Z,34.94
2018-05-16T10:53:11.894Z,34.19
2018-05-16T10:55:38.497Z,33.39
2018-05-16T10:58:05.040Z,32.35
2018-05-16T11:00:32.423Z,30.93
2018-05-16T11:02:59.157Z,30.65
2018-05-16T11:05:25.784Z,30.87
2018-05-16T11:07:52.490Z,30.89
2018-05-16T11:10:19.000Z,29.76
2018-05-16T11:12:45.704Z,31.47
2018-05-16T11:15:19.345Z,30.79
2018-05-16T11:17:45.896Z,31.06
2018-05-16T11:20:12.334Z,31.56
2018-05-16T11:22:39.005Z,31.90
2018-05-16T11:25:05.590Z,29.74
2018-05-16T11:27:32.278Z,30.64
2018-05-16T11:29:58.978Z,29.89
2018-05-16T11:32:25.700Z,30.42
2018-05-16T11:34:52.372Z,31.58
2018-05-16T11:37:19.157Z,31.06
2018-05-16T11:39:45.665Z,29.25
2018-05-16T11:42:12.249Z,28.66
2018-05-16T11:44:38.871Z,28.24
2018-05-16T11:49:31.473Z,29.24
2018-05-16T11:51:58.130Z,28.92
2018-05-16T11:54:24.779Z,28.77
2018-05-16T11:56:51.434Z,28.12
2018-05-16T11:59:18.269Z,27.36
2018-05-16T12:01:45.015Z,27.02
2018-05-16T12:04:11.556Z,28.12
2018-05-16T12:06:38.221Z,29.19
2018-05-16T12:09:04.983Z,28.98
2018-05-16T12:11:31.738Z,29.58
2018-05-16T12:13:58.385Z,29.99
2018-05-16T12:16:25.066Z,30.09
2018-05-16T12:18:51.734Z,30.19
2018-05-16T12:21:18.256Z,30.00
2018-05-16T12:23:45.016Z,28.91
2018-05-16T12:26:11.518Z,29.56
2018-05-16T12:28:38.242Z,29.61
2018-05-16T12:31:04.982Z,29.47
2018-05-16T12:33:31.606Z,29.88
2018-05-16T12:35:58.361Z,29.54
2018-05-16T12:38:24.972Z,27.50
2018-05-16T12:40:51.813Z,28.48
2018-05-16T12:43:18.566Z,27.50
2018-05-16T12:45:45.299Z,27.93
2018-05-16T12:48:11.860Z,28.85
2018-05-16T12:58:54.603Z,27.79
2018-05-16T13:01:21.290Z,28.44
2018-05-16T13:03:48.136Z,28.87
2018-05-16T13:06:14.865Z,28.95
2018-05-16T13:08:41.401Z,29.20
2018-05-16T13:11:08.015Z,29.48
2018-05-16T13:13:34.733Z,27.73
2018-05-16T13:16:01.464Z,28.46
2018-05-16T13:18:27.969Z,28.47
2018-05-16T13:20:54.581Z,27.77
2018-05-16T13:23:21.215Z,28.05
2018-05-16T13:25:47.955Z,27.54
2018-05-16T13:28:14.636Z,28.68
2018-05-16T13:30:41.260Z,27.36
2018-05-16T13:33:07.893Z,27.60
2018-05-16T13:35:34.531Z,26.91
2018-05-16T13:38:01.101Z,27.48
2018-05-16T13:40:27.952Z,29.08
2018-05-16T13:42:54.540Z,27.21
2018-05-16T13:45:21.116Z,27.94
2018-05-16T13:47:47.689Z,27.64
2018-05-16T13:50:14.452Z,27.21
2018-05-16T13:52:41.001Z,27.82
2018-05-16T13:55:07.605Z,27.64
2018-05-16T13:57:34.225Z,28.15
2018-05-16T14:00:00.883Z,28.24
2018-05-16T14:02:27.396Z,28.33
2018-05-16T14:04:54.076Z,27.69
2018-05-16T14:07:20.668Z,26.68
2018-05-16T14:09:47.245Z,27.86
2018-05-16T14:12:13.855Z,27.68
2018-05-16T14:14:40.545Z,27.60
2018-05-16T14:17:07.209Z,28.21
2018-05-16T14:19:33.767Z,27.92
2018-05-16T14:22:00.375Z,28.00
2018-05-16T14:24:26.912Z,27.90
2018-05-16T14:26:53.479Z,28.53
2018-05-16T14:29:19.960Z,28.68
2018-05-16T14:34:19.869Z,28.99
2018-05-16T14:36:46.549Z,29.48
2018-05-16T14:39:13.245Z,28.84
2018-05-16T14:41:39.897Z,28.82
2018-05-16T14:44:06.495Z,29.13
2018-05-16T14:46:33.117Z,28.28
2018-05-16T14:48:59.746Z,27.89
2018-05-16T14:51:26.419Z,28.04
2018-05-16T14:53:53.022Z,27.16
2018-05-16T14:56:19.619Z,28.07
2018-05-16T14:58:46.353Z,28.27
2018-05-16T15:01:12.942Z,28.21
2018-05-16T15:03:39.626Z,28.12
2018-05-16T15:06:06.330Z,27.92
2018-05-16T15:08:33.197Z,28.29
2018-05-16T15:11:03.932Z,28.37
2018-05-16T15:13:31.000Z,28.94
2018-05-16T15:15:57.633Z,29.20
2018-05-16T15:18:24.180Z,30.34
2018-05-16T15:20:50.843Z,29.95
2018-05-16T15:23:17.479Z,28.62
2018-05-16T15:25:45.029Z,28.76
2018-05-16T15:28:11.611Z,29.42
2018-05-16T15:30:38.244Z,27.53
2018-05-16T15:33:04.938Z,29.34
2018-05-16T15:35:31.525Z,28.32
2018-05-16T15:48:43.393Z,29.37
2018-05-16T15:51:10.005Z,28.38
2018-05-16T15:53:36.614Z,28.52
2018-05-16T15:56:03.221Z,30.22
2018-05-16T15:58:29.764Z,27.50
2018-05-16T16:00:56.543Z,28.84
2018-05-16T16:03:23.110Z,27.41
2018-05-16T16:05:49.863Z,28.75
2018-05-16T16:08:16.434Z,26.28
2018-05-16T16:10:42.994Z,26.69
2018-05-16T16:13:09.577Z,27.23
2018-05-16T16:15:36.169Z,27.76
2018-05-16T16:18:02.718Z,27.19
2018-05-16T16:20:29.290Z,27.08
2018-05-16T16:22:55.788Z,27.13
2018-05-16T16:25:22.464Z,26.53
2018-05-16T16:27:48.967Z,26.82
2018-05-16T16:30:15.580Z,27.56
2018-05-16T16:32:42.202Z,27.82
2018-05-16T16:35:08.928Z,28.04
2018-05-16T16:37:35.427Z,28.19
2018-05-16T16:40:02.300Z,28.07
2018-05-16T16:42:29.393Z,28.42
2018-05-16T16:44:58.084Z,28.61
2018-05-16T16:47:25.401Z,28.57
2018-05-16T16:49:52.089Z,29.01
2018-05-16T16:52:20.709Z,30.26
2018-05-16T16:54:50.581Z,31.00
2018-05-16T16:57:17.334Z,31.27
2018-05-16T16:59:43.948Z,31.85
2018-05-16T17:02:10.456Z,32.09
2018-05-16T17:04:36.990Z,31.84
2018-05-16T17:07:03.662Z,31.80
2018-05-16T17:09:30.229Z,32.28
2018-05-16T17:11:56.824Z,32.69
2018-05-16T17:14:23.392Z,33.07
2018-05-16T17:16:49.961Z,33.96
2018-05-16T17:19:16.564Z,34.68
2018-05-16T17:21:44.215Z,34.74
2018-05-16T17:24:11.121Z,35.03
2018-05-16T17:26:37.795Z,35.27
2018-05-16T17:29:04.371Z,35.28
2018-05-16T17:31:30.896Z,35.67
2018-05-16T17:33:57.483Z,36.41
2018-05-16T17:36:24.017Z,36.77
2018-05-16T17:38:50.615Z,37.29
2018-05-16T17:41:17.213Z,38.18
2018-05-16T17:49:19.765Z,39.36
2018-05-16T17:51:47.007Z,39.58
2018-05-16T17:54:13.665Z,39.91
2018-05-16T17:56:40.248Z,40.13
2018-05-16T17:59:06.859Z,40.53
2018-05-16T18:01:33.531Z,41.39
2018-05-16T18:04:00.131Z,41.58
2018-05-16T18:06:26.715Z,41.72
2018-05-16T18:08:53.379Z,42.92
2018-05-16T18:11:20.073Z,43.49
2018-05-16T18:13:59.548Z,43.63
2018-05-16T18:16:39.203Z,44.20
2018-05-16T18:19:05.809Z,44.21
2018-05-16T18:21:32.404Z,44.03
2018-05-16T18:23:59.049Z,43.94
2018-05-16T18:26:25.776Z,43.64
2018-05-16T18:28:52.453Z,43.43
2018-05-16T18:31:19.196Z,43.32
2018-05-16T18:33:45.817Z,43.84
2018-05-16T18:36:12.346Z,44.42
2018-05-16T18:38:39.054Z,45.52
2018-05-16T18:41:05.611Z,46.17
2018-05-16T18:43:32.209Z,46.74
2018-05-16T18:45:58.760Z,47.31
2018-05-16T18:48:25.256Z,47.66
2018-05-16T18:50:51.817Z,48.15
2018-05-16T18:53:18.467Z,48.46
2018-05-16T18:55:45.093Z,49.15
2018-05-16T18:58:11.600Z,49.80
2018-05-16T19:00:38.285Z,50.45
2018-05-16T19:03:04.967Z,50.83
2018-05-16T19:05:31.544Z,51.55
2018-05-16T19:07:58.079Z,52.23
2018-05-16T19:10:24.680Z,52.82
2018-05-16T19:12:51.441Z,52.34
2018-05-16T19:15:19.036Z,54.25
2018-05-16T19:17:45.609Z,55.11
2018-05-16T19:20:12.312Z,53.91
2018-05-16T19:22:38.884Z,53.82
2018-05-16T19:25:05.813Z,54.40
2018-05-16T19:27:32.625Z,54.81
2018-05-16T19:29:59.143Z,54.44
2018-05-16T19:32:25.770Z,55.01
2018-05-16T19:34:52.416Z,55.32
2018-05-16T19:37:19.127Z,55.22
2018-05-16T19:39:47.515Z,55.85
2018-05-16T19:42:17.258Z,56.15
2018-05-16T19:44:43.877Z,56.40
2018-05-16T19:47:10.623Z,59.02
2018-05-16T19:49:37.152Z,59.85
2018-05-16T19:52:03.926Z,60.12
2018-05-16T19:54:30.640Z,59.82
2018-05-16T19:56:57.192Z,60.90
2018-05-16T19:59:23.787Z,60.91
2018-05-16T20:01:50.461Z,61.74
2018-05-16T20:04:17.286Z,60.63
2018-05-16T20:06:43.873Z,61.16
2018-05-16T20:09:10.539Z,61.99
2018-05-16T20:11:37.701Z,62.91
2018-05-16T20:14:04.312Z,64.25
2018-05-16T20:16:30.903Z,64.61
2018-05-16T20:18:57.901Z,64.72
2018-05-16T20:21:24.539Z,64.21
2018-05-16T20:23:51.366Z,62.28
2018-05-16T20:26:17.908Z,64.15
2018-05-16T20:28:44.676Z,64.75
2018-05-16T20:31:11.259Z,64.53
2018-05-16T20:33:37.724Z,63.59
2018-05-16T20:36:04.270Z,62.25
2018-05-16T20:38:30.900Z,63.30
2018-05-16T20:40:57.664Z,62.49
2018-05-16T20:43:24.252Z,62.02
2018-05-16T20:45:50.847Z,61.27
2018-05-16T20:48:17.368Z,62.76
2018-05-16T20:50:44.043Z,62.53
2018-05-16T20:53:10.789Z,63.25
2018-05-16T20:55:37.385Z,63.49
2018-05-16T20:58:04.222Z,63.42
2018-05-16T21:00:30.761Z,60.76
2018-05-16T21:02:57.616Z,59.46
2018-05-16T21:05:24.542Z,58.74
2018-05-16T21:07:51.250Z,59.21
2018-05-16T21:10:17.831Z,62.93
2018-05-16T21:12:44.493Z,63.47
2018-05-16T21:15:11.278Z,64.24
2018-05-16T21:17:37.773Z,62.47
2018-05-16T21:20:04.591Z,58.98
2018-05-16T21:22:31.111Z,59.22
2018-05-16T21:24:57.708Z,58.77
2018-05-16T21:27:24.356Z,58.76
2018-05-16T21:29:51.048Z,59.17
2018-05-16T21:32:17.853Z,63.19
2018-05-16T21:34:44.458Z,64.03
2018-05-16T21:37:11.116Z,64.24
2018-05-16T21:39:37.816Z,64.82
2018-05-16T21:42:04.445Z,64.87
2018-05-16T21:44:31.289Z,65.04
2018-05-16T21:46:57.859Z,64.92
2018-05-16T21:49:24.458Z,64.44
2018-05-16T21:51:51.008Z,64.59
2018-05-16T21:54:17.704Z,64.78
2018-05-16T21:56:44.286Z,64.35
2018-05-16T21:59:17.951Z,63.68
2018-05-16T22:01:44.442Z,64.11
2018-05-16T22:04:11.205Z,65.16
2018-05-16T22:06:37.780Z,65.47
2018-05-16T22:09:05.223Z,65.84
2018-05-16T22:11:31.759Z,66.07
2018-05-16T22:13:58.412Z,66.59
2018-05-16T22:16:24.889Z,66.74
2018-05-16T22:18:51.572Z,64.15
2018-05-16T22:21:18.100Z,64.94
2018-05-16T22:23:44.703Z,62.10
2018-05-16T22:26:11.178Z,61.42
2018-05-16T22:28:37.732Z,64.18
2018-05-16T22:31:10.461Z,63.87
2018-05-16T22:33:42.999Z,64.36
2018-05-16T22:36:15.792Z,61.90
2018-05-16T22:38:48.199Z,61.93
2018-05-16T22:41:20.895Z,62.63
2018-05-16T22:46:30.469Z,63.61
2018-05-16T22:48:57.127Z,62.49
2018-05-16T22:51:23.847Z,62.50
2018-05-16T22:53:50.496Z,64.30
2018-05-16T22:56:16.967Z,64.13
2018-05-16T22:58:43.535Z,62.41
2018-05-16T23:01:16.946Z,62.17
2018-05-16T23:03:43.420Z,62.12
2018-05-16T23:06:09.900Z,61.75
2018-05-16T23:08:36.613Z,62.09
2018-05-16T23:11:03.167Z,62.55
2018-05-16T23:13:29.793Z,63.04
2018-05-16T23:15:56.324Z,63.58
2018-05-16T23:18:22.956Z,63.74
2018-05-16T23:20:49.646Z,64.45
2018-05-16T23:23:16.278Z,64.86
2018-05-16T23:25:42.924Z,64.45
2018-05-16T23:28:09.847Z,64.38
2018-05-16T23:30:36.533Z,64.55
2018-05-16T23:33:03.328Z,65.15
2018-05-16T23:35:30.015Z,65.37
2018-05-16T23:37:56.631Z,65.73
2018-05-16T23:40:23.279Z,65.73
2018-05-16T23:42:50.196Z,65.95
2018-05-16T23:45:16.813Z,65.88
2018-05-16T23:47:43.529Z,65.41
2018-05-16T23:50:10.132Z,65.89
2018-05-16T23:52:36.890Z,66.46
2018-05-16T23:55:03.612Z,66.12
2018-05-16T23:57:30.256Z,66.40
2018-05-16T23:59:56.741Z,66.88
